Time;durP1;ratioP1;P1;durP2;ratioP2;P2;SDS_P1;SDS_P2;PMS_P1;PMS_P2;Temp;Humidity;BMP_temperature;BMP_pressure;BME280_temperature;BME280_humidity;BME280_pressure;Samples;Min_cycle;Max_cycle;Signal;HPM_P1;HPM_P2
2021/07/26 00:00:03;;;;;;;7.67;6.83;;;25.60;99.90;;;;;;6127663;23;20209;-68
2021/07/26 00:02:29;;;;;;;6.70;6.10;;;25.60;99.90;;;;;;6127096;23;20230;-64
2021/07/26 00:04:54;;;;;;;7.87;7.00;;;25.60;99.90;;;;;;6127651;23;20390;-64
2021/07/26 00:07:20;;;;;;;8.07;6.87;;;25.60;99.90;;;;;;6126860;23;20203;-68
2021/07/26 00:09:46;;;;;;;6.53;5.50;;;25.60;99.90;;;;;;6125723;23;20163;-64
2021/07/26 00:12:11;;;;;;;6.20;5.70;;;25.50;99.90;;;;;;6127092;23;20183;-68
2021/07/26 00:14:37;;;;;;;7.10;6.40;;;25.50;99.90;;;;;;6125519;23;20169;-67
2021/07/26 00:17:03;;;;;;;6.87;6.17;;;25.50;99.90;;;;;;6126624;23;20190;-64
2021/07/26 00:19:28;;;;;;;6.63;6.03;;;25.40;99.90;;;;;;6127496;23;20188;-65
2021/07/26 00:21:54;;;;;;;7.50;6.80;;;25.40;99.90;;;;;;6126794;23;20180;-68
2021/07/26 00:24:20;;;;;;;7.20;6.50;;;25.40;99.90;;;;;;6127198;23;20231;-64
2021/07/26 00:26:46;;;;;;;7.30;5.73;;;25.40;99.90;;;;;;6126874;23;20634;-68
2021/07/26 00:29:12;;;;;;;7.10;6.40;;;25.40;99.90;;;;;;6125587;23;20867;-67
2021/07/26 00:31:38;;;;;;;7.50;6.70;;;25.30;99.90;;;;;;6126969;23;20839;-68
2021/07/26 00:34:23;;;;;;;8.03;6.50;;;25.30;99.90;;;;;;6125439;23;20397;-69
2021/07/26 00:36:50;;;;;;;8.40;6.67;;;25.30;99.90;;;;;;6125458;23;20270;-65
2021/07/26 00:39:22;;;;;;;6.70;6.00;;;25.30;99.90;;;;;;6126983;23;20749;-64
2021/07/26 00:41:48;;;;;;;6.90;6.20;;;25.30;99.90;;;;;;6127043;23;20429;-64
2021/07/26 00:44:15;;;;;;;6.90;5.70;;;25.30;99.90;;;;;;6125488;23;20844;-64
2021/07/26 00:46:41;;;;;;;6.60;6.00;;;25.30;99.90;;;;;;6126770;23;20246;-68
2021/07/26 00:49:09;;;;;;;7.20;6.50;;;25.20;99.90;;;;;;6125440;23;20527;-67
2021/07/26 00:51:37;;;;;;;9.03;6.77;;;25.20;99.90;;;;;;6126834;23;20544;-65
2021/07/26 00:54:03;;;;;;;8.13;6.60;;;25.10;99.90;;;;;;6127033;23;20417;-68
2021/07/26 00:56:29;;;;;;;7.20;6.43;;;25.10;99.90;;;;;;6126804;23;20823;-64
2021/07/26 00:58:54;;;;;;;7.67;6.97;;;25.10;99.90;;;;;;6127061;23;20420;-68
2021/07/26 01:01:20;;;;;;;8.50;7.27;;;25.00;99.90;;;;;;6149934;23;20637;-68
2021/07/26 01:03:46;;;;;;;7.40;6.60;;;25.00;99.90;;;;;;6127071;23;20161;-68
2021/07/26 01:06:12;;;;;;;6.83;6.20;;;25.00;99.90;;;;;;6125090;23;20675;-68
2021/07/26 01:08:39;;;;;;;6.17;5.30;;;24.90;99.90;;;;;;6126940;23;20230;-64
2021/07/26 01:11:05;;;;;;;7.10;6.03;;;24.90;99.90;;;;;;6125178;23;20396;-67
2021/07/26 01:13:31;;;;;;;7.27;6.57;;;24.90;99.90;;;;;;6126838;23;20453;-64
2021/07/26 01:15:58;;;;;;;9.97;6.93;;;24.80;99.90;;;;;;6125056;23;20401;-69
2021/07/26 01:18:27;;;;;;;7.40;6.60;;;24.80;99.90;;;;;;6126735;23;20867;-69
2021/07/26 01:21:01;;;;;;;8.47;7.60;;;24.80;99.90;;;;;;6126740;23;20394;-68
2021/07/26 01:23:29;;;;;;;9.30;6.47;;;24.80;99.90;;;;;;6127029;23;20381;-67
2021/07/26 01:25:55;;;;;;;7.47;6.77;;;24.80;99.90;;;;;;6126633;23;20465;-64
2021/07/26 01:28:23;;;;;;;7.30;6.60;;;24.80;99.90;;;;;;6128292;23;20408;-68
2021/07/26 01:30:49;;;;;;;6.63;6.03;;;24.80;99.90;;;;;;6128487;23;20381;-64
2021/07/26 01:33:16;;;;;;;6.70;5.90;;;24.80;99.90;;;;;;6128354;23;20897;-68
2021/07/26 01:35:42;;;;;;;6.90;6.10;;;24.80;99.90;;;;;;6128198;23;20472;-64
2021/07/26 01:38:08;;;;;;;6.47;5.80;;;24.80;99.90;;;;;;6127015;23;20767;-64
2021/07/26 01:40:37;;;;;;;7.60;6.70;;;24.80;99.90;;;;;;6128445;23;20234;-68
2021/07/26 01:43:04;;;;;;;7.10;6.40;;;24.80;99.90;;;;;;6126610;23;20907;-64
2021/07/26 01:45:30;;;;;;;7.97;6.70;;;24.80;99.90;;;;;;6128558;23;20436;-68
2021/07/26 01:48:03;;;;;;;7.13;6.43;;;24.80;99.90;;;;;;6128234;23;20427;-64
2021/07/26 01:50:34;;;;;;;7.30;6.53;;;24.80;99.90;;;;;;6128391;23;20694;-68
2021/07/26 01:53:00;;;;;;;6.90;6.20;;;24.80;99.90;;;;;;6128300;23;20460;-68
2021/07/26 01:55:25;;;;;;;7.63;6.80;;;24.90;99.90;;;;;;6127027;23;20401;-68
2021/07/26 01:57:52;;;;;;;6.80;6.10;;;24.80;99.90;;;;;;6128093;23;20190;-64
2021/07/26 02:00:17;;;;;;;7.30;6.17;;;24.90;99.90;;;;;;6128945;23;20163;-67
2021/07/26 02:02:43;;;;;;;7.17;6.00;;;24.90;99.90;;;;;;6128109;23;20401;-68
2021/07/26 02:05:10;;;;;;;7.33;6.50;;;24.90;99.90;;;;;;6128607;23;20574;-68
2021/07/26 02:07:35;;;;;;;7.43;6.63;;;24.90;99.90;;;;;;6128194;23;20176;-65
2021/07/26 02:10:01;;;;;;;6.03;5.50;;;24.90;99.90;;;;;;6128546;23;20437;-69
2021/07/26 02:12:27;;;;;;;6.73;6.13;;;24.90;99.90;;;;;;6128181;23;20183;-68
2021/07/26 02:14:53;;;;;;;8.13;7.00;;;24.90;99.90;;;;;;6128367;23;20397;-68
2021/07/26 02:17:19;;;;;;;10.47;6.40;;;24.90;99.90;;;;;;6126346;23;20210;-64
2021/07/26 02:19:45;;;;;;;7.83;6.20;;;24.90;99.90;;;;;;6128405;23;20433;-68
2021/07/26 02:22:10;;;;;;;7.77;6.47;;;24.90;99.90;;;;;;6127906;23;20183;-68
2021/07/26 02:24:36;;;;;;;7.63;6.83;;;24.90;99.90;;;;;;6127947;23;20586;-64
2021/07/26 02:27:04;;;;;;;8.00;6.40;;;24.90;99.90;;;;;;6126157;23;20206;-69
2021/07/26 02:29:29;;;;;;;8.30;7.20;;;24.90;99.90;;;;;;6126548;23;20472;-64
2021/07/26 02:31:55;;;;;;;7.83;6.30;;;25.00;99.90;;;;;;6127922;23;20408;-69
2021/07/26 02:34:21;;;;;;;7.00;6.30;;;25.00;99.90;;;;;;6128206;23;20171;-64
2021/07/26 02:36:46;;;;;;;10.70;6.47;;;25.00;99.90;;;;;;6127786;23;20182;-68
2021/07/26 02:39:12;;;;;;;7.07;6.40;;;25.00;99.90;;;;;;6127827;23;20159;-68
2021/07/26 02:41:37;;;;;;;7.60;6.37;;;25.00;99.90;;;;;;6126212;23;20233;-68
2021/07/26 02:44:03;;;;;;;7.87;7.07;;;25.00;99.90;;;;;;6126322;23;20251;-68
2021/07/26 02:46:29;;;;;;;8.03;6.90;;;25.00;99.90;;;;;;6125918;23;20203;-64
2021/07/26 02:48:54;;;;;;;7.10;5.90;;;25.00;99.90;;;;;;6127929;23;20159;-68
2021/07/26 02:51:20;;;;;;;6.60;5.93;;;25.00;99.90;;;;;;6127644;23;20243;-68
2021/07/26 02:53:46;;;;;;;7.27;6.17;;;25.10;99.90;;;;;;6127899;23;20152;-68
2021/07/26 02:56:11;;;;;;;9.13;6.53;;;25.10;99.90;;;;;;6126713;23;20185;-64
2021/07/26 02:58:38;;;;;;;6.50;5.87;;;25.10;99.90;;;;;;6125839;23;20413;-65
2021/07/26 03:01:04;;;;;;;6.67;6.00;;;25.10;99.90;;;;;;6126149;23;20238;-67
2021/07/26 03:03:29;;;;;;;10.23;5.57;;;25.00;99.90;;;;;;6126762;23;20406;-69
2021/07/26 03:05:55;;;;;;;9.67;6.20;;;25.00;99.90;;;;;;6125919;23;20775;-68
2021/07/26 03:08:21;;;;;;;7.33;5.83;;;25.00;99.90;;;;;;6127491;23;20187;-65
2021/07/26 03:10:46;;;;;;;8.30;6.50;;;25.00;99.90;;;;;;6127727;23;20618;-66
2021/07/26 03:13:12;;;;;;;6.63;5.93;;;25.00;99.90;;;;;;6150286;23;20179;-64
2021/07/26 03:15:38;;;;;;;8.57;6.00;;;25.00;99.90;;;;;;6127480;23;20238;-66
2021/07/26 03:18:03;;;;;;;8.20;6.30;;;25.00;99.90;;;;;;6127256;23;20167;-64
2021/07/26 03:20:29;;;;;;;6.60;5.77;;;25.00;99.90;;;;;;6127505;23;20183;-64
2021/07/26 03:23:08;;;;;;;5.93;5.30;;;25.00;99.90;;;;;;6127515;23;20217;-64
2021/07/26 03:25:39;;;;;;;9.70;5.47;;;25.00;99.90;;;;;;6127342;23;20282;-64
2021/07/26 03:28:05;;;;;;;6.43;5.80;;;25.10;99.90;;;;;;6127295;23;20386;-68
2021/07/26 03:30:31;;;;;;;8.37;6.40;;;25.10;99.90;;;;;;6127261;23;20378;-65
2021/07/26 03:32:56;;;;;;;6.73;5.63;;;25.10;99.90;;;;;;6127369;23;20167;-64
2021/07/26 03:35:23;;;;;;;6.37;5.20;;;25.20;99.90;;;;;;6127722;23;20245;-64
2021/07/26 03:37:51;;;;;;;6.73;6.10;;;25.20;99.90;;;;;;6127249;23;20234;-65
2021/07/26 03:40:17;;;;;;;6.80;5.90;;;25.20;99.90;;;;;;6127486;23;20396;-64
2021/07/26 03:42:44;;;;;;;9.30;6.93;;;25.30;99.90;;;;;;6125656;23;20717;-64
2021/07/26 03:45:12;;;;;;;7.07;6.00;;;25.30;99.90;;;;;;6127604;23;20393;-64
2021/07/26 03:47:38;;;;;;;7.73;6.93;;;25.40;99.90;;;;;;6127231;23;20390;-65
2021/07/26 03:50:06;;;;;;;8.07;6.10;;;25.40;99.90;;;;;;6127322;23;20396;-68
2021/07/26 03:52:45;;;;;;;6.30;5.70;;;25.40;99.90;;;;;;6127034;23;20421;-68
2021/07/26 03:55:13;;;;;;;7.20;6.47;;;25.40;99.90;;;;;;6127759;23;20405;-68
2021/07/26 03:57:38;;;;;;;6.40;5.43;;;25.40;99.90;;;;;;6127120;23;20401;-64
2021/07/26 04:00:05;;;;;;;6.47;5.87;;;25.40;99.90;;;;;;6127646;23;20484;-68
2021/07/26 04:02:30;;;;;;;9.43;6.70;;;25.40;99.90;;;;;;6126930;23;20176;-64
2021/07/26 04:04:56;;;;;;;6.93;6.23;;;25.40;99.90;;;;;;6127564;23;20381;-68
2021/07/26 04:07:24;;;;;;;7.47;6.27;;;25.40;99.90;;;;;;6126884;23;20586;-68
2021/07/26 04:09:56;;;;;;;7.10;5.60;;;25.40;99.90;;;;;;6127443;23;20170;-68
2021/07/26 04:12:25;;;;;;;6.80;5.70;;;25.30;99.90;;;;;;6125499;23;20421;-64
2021/07/26 04:14:51;;;;;;;6.47;5.50;;;25.30;99.90;;;;;;6127604;23;20389;-68
2021/07/26 04:17:16;;;;;;;6.17;5.57;;;25.30;99.90;;;;;;6126902;23;20461;-64
2021/07/26 04:19:42;;;;;;;7.17;6.43;;;25.30;99.90;;;;;;6127563;23;20159;-64
2021/07/26 04:22:07;;;;;;;9.00;5.50;;;25.30;99.90;;;;;;6126875;23;20211;-64
2021/07/26 04:24:33;;;;;;;6.60;6.00;;;25.30;99.90;;;;;;6126882;23;20242;-68
2021/07/26 04:26:58;;;;;;;6.40;5.70;;;25.30;99.90;;;;;;6126766;23;20206;-65
2021/07/26 04:29:24;;;;;;;6.70;5.70;;;25.30;99.90;;;;;;6127182;23;20159;-64
2021/07/26 04:31:50;;;;;;;7.00;6.30;;;25.30;99.90;;;;;;6125280;23;20188;-64
2021/07/26 04:34:16;;;;;;;7.17;6.57;;;25.30;99.90;;;;;;6127677;23;20516;-64
2021/07/26 04:36:42;;;;;;;7.00;6.30;;;25.30;99.90;;;;;;6125211;23;20437;-69
2021/07/26 04:39:08;;;;;;;7.20;6.50;;;25.30;99.90;;;;;;6125468;23;20374;-68
2021/07/26 04:41:33;;;;;;;7.00;6.03;;;25.30;99.90;;;;;;6126861;23;20231;-68
2021/07/26 04:43:59;;;;;;;6.90;5.80;;;25.30;99.90;;;;;;6127023;23;20552;-68
2021/07/26 04:46:25;;;;;;;7.10;6.40;;;25.20;99.90;;;;;;6126498;23;20532;-65
2021/07/26 04:48:50;;;;;;;7.33;6.30;;;25.20;99.90;;;;;;6126957;23;20481;-69
2021/07/26 04:51:16;;;;;;;7.30;5.40;;;25.20;99.90;;;;;;6126859;23;20541;-64
2021/07/26 04:53:41;;;;;;;8.73;6.03;;;25.20;99.90;;;;;;6127054;23;20158;-65
2021/07/26 04:56:07;;;;;;;6.70;5.57;;;25.20;99.90;;;;;;6126755;23;20237;-67
2021/07/26 04:58:34;;;;;;;7.73;5.90;;;25.10;99.90;;;;;;6127018;23;20155;-65
2021/07/26 05:00:59;;;;;;;8.00;6.43;;;25.10;99.90;;;;;;6126765;23;20598;-64
2021/07/26 05:03:25;;;;;;;7.90;6.40;;;25.00;99.90;;;;;;6128788;23;20376;-64
2021/07/26 05:05:51;;;;;;;8.73;5.90;;;25.00;99.90;;;;;;6128292;23;20616;-68
2021/07/26 05:08:16;;;;;;;6.83;5.93;;;24.90;99.90;;;;;;6128569;23;20181;-67
2021/07/26 05:10:46;;;;;;;7.80;6.80;;;24.90;99.90;;;;;;6128707;23;20600;-64
2021/07/26 05:13:12;;;;;;;10.20;5.80;;;24.90;99.90;;;;;;6127825;23;20177;-64
2021/07/26 05:15:38;;;;;;;7.63;6.30;;;24.90;99.90;;;;;;6128086;23;20461;-64
2021/07/26 05:18:03;;;;;;;7.00;6.13;;;25.00;99.90;;;;;;6126366;23;20443;-65
2021/07/26 05:20:32;;;;;;;6.17;5.57;;;25.00;99.90;;;;;;6127458;23;20166;-68
2021/07/26 05:23:10;;;;;;;6.27;5.73;;;25.10;99.90;;;;;;6125215;23;20179;-64
2021/07/26 05:25:36;;;;;;;8.90;7.03;;;25.10;99.90;;;;;;6127216;23;20973;-68
2021/07/26 05:28:02;;;;;;;6.83;6.10;;;25.10;99.90;;;;;;6126530;23;20439;-68
2021/07/26 05:30:28;;;;;;;7.10;5.53;;;25.10;99.90;;;;;;6126327;23;20715;-64
2021/07/26 05:32:54;;;;;;;10.37;6.17;;;25.10;99.90;;;;;;6127398;23;20540;-68
2021/07/26 05:35:20;;;;;;;7.57;6.03;;;25.20;99.90;;;;;;6127722;23;20258;-68
2021/07/26 05:37:46;;;;;;;6.50;5.80;;;25.20;99.90;;;;;;6128159;23;20402;-69
2021/07/26 05:40:12;;;;;;;6.77;5.70;;;25.20;99.90;;;;;;6126721;23;20170;-64
2021/07/26 05:42:37;;;;;;;7.63;6.83;;;25.20;99.90;;;;;;6125852;23;20545;-68
2021/07/26 05:45:04;;;;;;;7.63;6.50;;;25.20;99.90;;;;;;6126223;23;20389;-64
2021/07/26 05:47:31;;;;;;;6.30;5.70;;;25.20;99.90;;;;;;6126831;23;20214;-69
2021/07/26 05:49:57;;;;;;;8.40;5.80;;;25.30;99.90;;;;;;6122776;23;20384;-70
2021/07/26 05:52:22;;;;;;;7.33;5.43;;;25.30;99.90;;;;;;6124965;23;20791;-64
2021/07/26 05:54:48;;;;;;;7.43;6.73;;;25.30;99.90;;;;;;6125047;23;20397;-64
2021/07/26 05:57:15;;;;;;;8.50;6.63;;;25.30;99.90;;;;;;6123516;23;20552;-70
2021/07/26 05:59:43;;;;;;;6.43;5.80;;;25.40;99.90;;;;;;6125077;23;20172;-64
2021/07/26 06:02:09;;;;;;;7.93;6.20;;;25.40;99.90;;;;;;6127553;23;20725;-64
2021/07/26 06:04:35;;;;;;;6.50;5.90;;;25.50;99.90;;;;;;6122691;23;20869;-64
2021/07/26 06:07:00;;;;;;;6.47;5.87;;;25.50;99.90;;;;;;6123942;23;20836;-64
2021/07/26 06:09:26;;;;;;;7.30;6.00;;;25.60;99.90;;;;;;6124374;23;20152;-64
2021/07/26 06:11:52;;;;;;;8.73;6.23;;;25.60;99.90;;;;;;6124592;23;20705;-68
2021/07/26 06:14:19;;;;;;;7.53;5.70;;;25.60;99.90;;;;;;6125601;23;20179;-68
2021/07/26 06:16:46;;;;;;;8.70;6.07;;;25.70;99.90;;;;;;6124287;23;20744;-68
2021/07/26 06:19:13;;;;;;;9.37;6.43;;;25.70;99.90;;;;;;6124765;23;20690;-64
2021/07/26 06:21:43;;;;;;;7.20;6.07;;;25.80;99.90;;;;;;6126169;23;20409;-68
2021/07/26 06:24:09;;;;;;;6.07;5.47;;;25.80;99.90;;;;;;6125728;23;20390;-68
2021/07/26 06:26:35;;;;;;;6.37;5.77;;;25.90;99.90;;;;;;6126658;23;20524;-64
2021/07/26 06:29:00;;;;;;;6.23;5.63;;;26.00;99.90;;;;;;6123650;23;20887;-64
2021/07/26 06:31:26;;;;;;;6.60;5.40;;;26.00;99.90;;;;;;6123041;23;20187;-64
2021/07/26 06:33:51;;;;;;;7.00;5.30;;;26.00;99.90;;;;;;6125308;23;20179;-68
2021/07/26 06:36:17;;;;;;;6.70;5.53;;;26.10;99.90;;;;;;6123613;23;20207;-64
2021/07/26 06:38:43;;;;;;;6.80;5.60;;;26.10;99.90;;;;;;6122636;23;20214;-68
2021/07/26 06:41:09;;;;;;;6.53;5.87;;;26.10;99.90;;;;;;6124360;23;20760;-64
2021/07/26 06:43:34;;;;;;;7.73;5.63;;;26.20;99.90;;;;;;6123780;23;20144;-68
2021/07/26 06:46:10;;;;;;;6.17;5.57;;;26.20;99.90;;;;;;6125632;23;20227;-64
2021/07/26 06:48:36;;;;;;;7.60;6.60;;;26.30;99.90;;;;;;6123845;23;20359;-69
2021/07/26 06:51:04;;;;;;;6.30;5.70;;;26.40;99.90;;;;;;6122821;23;20441;-68
2021/07/26 06:53:30;;;;;;;6.23;5.63;;;26.40;99.90;;;;;;6124031;23;20155;-64
2021/07/26 06:55:56;;;;;;;6.80;6.10;;;26.50;99.90;;;;;;6124577;23;20437;-68
2021/07/26 06:58:22;;;;;;;7.90;6.90;;;26.50;99.90;;;;;;6124533;23;20354;-64
2021/07/26 07:00:47;;;;;;;5.83;5.33;;;26.60;99.90;;;;;;6121362;23;20207;-64
2021/07/26 07:03:13;;;;;;;7.17;6.47;;;26.70;99.90;;;;;;6123688;23;20175;-64
2021/07/26 07:05:38;;;;;;;6.27;5.67;;;26.70;99.90;;;;;;6124014;23;20275;-69
2021/07/26 07:08:04;;;;;;;7.00;5.90;;;26.80;99.90;;;;;;6123329;23;20271;-65
2021/07/26 07:10:30;;;;;;;7.20;5.20;;;26.80;99.90;;;;;;6125419;23;20503;-65
2021/07/26 07:12:56;;;;;;;6.97;6.37;;;26.90;99.90;;;;;;6120937;23;20259;-65
2021/07/26 07:15:23;;;;;;;10.93;6.43;;;26.90;99.80;;;;;;6124200;23;20414;-69
2021/07/26 07:17:51;;;;;;;6.80;6.10;;;27.00;99.90;;;;;;6125887;23;20214;-65
2021/07/26 07:20:17;;;;;;;6.50;5.90;;;27.10;99.90;;;;;;6124995;23;20836;-68
2021/07/26 07:22:42;;;;;;;6.33;5.73;;;27.10;99.80;;;;;;6123200;23;20171;-65
2021/07/26 07:25:09;;;;;;;8.07;6.63;;;27.20;99.70;;;;;;6124992;23;20359;-69
2021/07/26 07:27:34;;;;;;;7.00;6.10;;;27.20;99.90;;;;;;6123357;23;20195;-65
2021/07/26 07:30:00;;;;;;;6.03;5.53;;;27.30;99.90;;;;;;6122522;23;20369;-65
2021/07/26 07:32:25;;;;;;;6.73;6.13;;;27.40;99.90;;;;;;6147073;23;20211;-69
2021/07/26 07:34:51;;;;;;;7.40;6.70;;;27.40;99.90;;;;;;6124535;23;20188;-69
2021/07/26 07:37:17;;;;;;;6.63;5.93;;;27.40;99.90;;;;;;6122854;23;20184;-65
2021/07/26 07:39:42;;;;;;;8.40;7.47;;;27.50;99.90;;;;;;6124817;23;20140;-65
2021/07/26 07:42:09;;;;;;;7.50;6.13;;;27.60;99.90;;;;;;6125795;23;20593;-69
2021/07/26 07:44:35;;;;;;;6.80;6.10;;;27.70;99.90;;;;;;6120038;23;20207;-69
2021/07/26 07:47:02;;;;;;;8.60;5.83;;;27.80;99.90;;;;;;6122185;23;20501;-69
2021/07/26 07:49:29;;;;;;;8.80;6.30;;;27.90;99.90;;;;;;6122614;23;20422;-69
2021/07/26 07:51:55;;;;;;;5.40;4.90;;;28.10;99.90;;;;;;6121940;23;20469;-69
2021/07/26 07:54:21;;;;;;;7.13;6.50;;;28.20;99.90;;;;;;6124483;23;20425;-65
2021/07/26 07:56:48;;;;;;;8.43;6.30;;;28.30;99.90;;;;;;6123073;23;20927;-69
2021/07/26 07:59:14;;;;;;;6.10;5.50;;;28.40;99.80;;;;;;6123639;23;20368;-69
2021/07/26 08:01:42;;;;;;;7.67;6.20;;;28.50;99.40;;;;;;6123035;23;20407;-69
2021/07/26 08:04:08;;;;;;;6.73;6.13;;;28.50;99.50;;;;;;6123666;23;20168;-69
2021/07/26 08:06:40;;;;;;;7.90;5.83;;;28.60;99.90;;;;;;6123679;23;20472;-69
2021/07/26 08:09:08;;;;;;;6.27;5.67;;;28.70;99.90;;;;;;6121618;23;20364;-69
2021/07/26 08:11:33;;;;;;;6.80;6.20;;;28.80;99.60;;;;;;6119445;23;20453;-65
2021/07/26 08:14:02;;;;;;;6.40;5.80;;;28.90;99.70;;;;;;6121452;23;20374;-65
2021/07/26 08:16:28;;;;;;;6.03;5.20;;;29.00;99.50;;;;;;6123061;23;20181;-63
2021/07/26 08:18:55;;;;;;;6.80;6.20;;;29.10;99.30;;;;;;6145602;23;20430;-63
2021/07/26 08:21:21;;;;;;;6.90;6.17;;;29.10;99.10;;;;;;6119514;23;20418;-63
2021/07/26 08:23:46;;;;;;;6.33;5.83;;;29.10;99.00;;;;;;6123652;23;20425;-63
2021/07/26 08:26:12;;;;;;;8.30;6.53;;;29.10;99.20;;;;;;6121032;23;21028;-63
2021/07/26 08:28:38;;;;;;;7.87;7.10;;;29.10;99.10;;;;;;6121958;23;20153;-67
2021/07/26 08:31:04;;;;;;;6.67;6.03;;;29.10;99.20;;;;;;6119271;23;20659;-63
2021/07/26 08:33:29;;;;;;;6.80;6.07;;;29.10;98.80;;;;;;6121351;23;20505;-67
2021/07/26 08:35:57;;;;;;;7.23;6.50;;;29.20;99.40;;;;;;6120334;23;20195;-67
2021/07/26 08:38:23;;;;;;;7.37;6.67;;;29.20;99.40;;;;;;6123812;23;20239;-67
2021/07/26 08:40:49;;;;;;;16.10;7.00;;;29.30;98.90;;;;;;6124118;23;20401;-67
2021/07/26 08:43:15;;;;;;;7.30;6.33;;;29.30;99.10;;;;;;6125434;23;20890;-63
2021/07/26 08:45:41;;;;;;;8.57;6.70;;;29.40;99.20;;;;;;6126888;23;20431;-63
2021/07/26 08:48:09;;;;;;;7.37;6.70;;;29.50;99.00;;;;;;6123262;23;20624;-67
2021/07/26 08:50:36;;;;;;;7.33;6.63;;;29.60;98.80;;;;;;6124506;23;20174;-63
2021/07/26 08:53:05;;;;;;;7.23;6.60;;;29.70;99.00;;;;;;6125240;23;20417;-63
2021/07/26 08:55:35;;;;;;;6.50;5.90;;;29.80;98.90;;;;;;6122608;23;20378;-67
2021/07/26 08:58:01;;;;;;;9.47;7.30;;;29.80;98.40;;;;;;6123035;23;20525;-63
2021/07/26 09:00:27;;;;;;;7.93;7.07;;;29.80;98.90;;;;;;6123586;23;20724;-63
2021/07/26 09:02:53;;;;;;;8.10;7.30;;;29.90;99.00;;;;;;6126559;23;20412;-65
2021/07/26 09:05:19;;;;;;;7.20;6.50;;;30.00;99.30;;;;;;6124591;23;20423;-70
2021/07/26 09:07:46;;;;;;;7.90;7.10;;;30.10;99.40;;;;;;6122491;23;20442;-69
2021/07/26 09:10:18;;;;;;;10.20;7.30;;;30.20;98.60;;;;;;6124301;23;20395;-69
2021/07/26 09:12:45;;;;;;;7.90;7.10;;;30.20;99.10;;;;;;6121480;23;20417;-65
2021/07/26 09:15:38;;;;;;;8.20;7.40;;;30.30;99.10;;;;;;6122707;23;20387;-65
2021/07/26 09:18:08;;;;;;;8.40;7.60;;;30.40;98.90;;;;;;6123325;23;20413;-69
2021/07/26 09:20:35;;;;;;;9.20;8.20;;;30.40;98.90;;;;;;6121641;23;20384;-69
2021/07/26 09:23:10;;;;;;;7.43;6.73;;;30.50;98.70;;;;;;6123555;23;20433;-65
2021/07/26 09:25:37;;;;;;;7.50;6.83;;;30.60;99.20;;;;;;6125252;23;20369;-70
2021/07/26 09:28:09;;;;;;;8.67;7.00;;;30.60;98.90;;;;;;6124150;23;20420;-69
2021/07/26 09:30:55;;;;;;;7.87;7.10;;;30.70;99.30;;;;;;6125650;23;20365;-69
2021/07/26 09:33:21;;;;;;;7.90;7.10;;;30.80;98.90;;;;;;6124299;23;20915;-69
2021/07/26 09:36:20;;;;;;;8.70;7.37;;;30.90;99.20;;;;;;6118850;23;20508;-69
2021/07/26 09:38:49;;;;;;;8.83;6.83;;;31.00;98.70;;;;;;6111706;23;20170;-65
2021/07/26 09:41:18;;;;;;;8.00;7.13;;;31.10;98.80;;;;;;6122922;23;20793;-66
2021/07/26 09:43:44;;;;;;;9.33;7.17;;;31.10;98.50;;;;;;6124617;23;21064;-71
2021/07/26 09:46:25;;;;;;;8.90;8.00;;;31.10;98.70;;;;;;6123456;23;20424;-66
2021/07/26 09:49:17;;;;;;;8.10;7.30;;;31.10;98.70;;;;;;6120717;23;20492;-69
2021/07/26 09:52:01;;;;;;;8.50;7.77;;;31.10;98.60;;;;;;6122339;23;20485;-70
2021/07/26 09:54:48;;;;;;;8.93;7.87;;;31.00;98.20;;;;;;6125299;23;20856;-70
2021/07/26 09:57:24;;;;;;;9.00;8.10;;;31.00;98.80;;;;;;6122069;23;21188;-68
2021/07/26 09:59:52;;;;;;;8.70;7.87;;;31.00;99.00;;;;;;6121647;23;20405;-67
2021/07/26 10:02:25;;;;;;;9.13;8.23;;;31.00;98.60;;;;;;6121968;23;20398;-67
2021/07/26 10:04:51;;;;;;;8.97;8.07;;;31.10;98.90;;;;;;6124923;23;20444;-67
2021/07/26 10:07:18;;;;;;;8.50;7.70;;;31.20;98.30;;;;;;6124723;23;20465;-63
2021/07/26 10:09:45;;;;;;;9.40;8.50;;;31.30;98.60;;;;;;6123499;23;20170;-63
2021/07/26 10:12:20;;;;;;;8.80;7.60;;;31.30;98.80;;;;;;6121525;23;20406;-66
2021/07/26 10:14:50;;;;;;;9.23;8.43;;;31.40;98.90;;;;;;6124764;23;20369;-68
2021/07/26 10:17:16;;;;;;;9.33;8.33;;;31.50;98.80;;;;;;6124058;23;20390;-64
2021/07/26 10:19:42;;;;;;;9.87;8.93;;;31.60;98.40;;;;;;6125663;23;20402;-70
2021/07/26 10:22:14;;;;;;;9.50;8.53;;;31.70;98.40;;;;;;6123652;23;20386;-65
2021/07/26 10:24:50;;;;;;;9.50;8.60;;;31.70;98.00;;;;;;6148035;23;20624;-68
2021/07/26 10:27:23;;;;;;;7.93;7.30;;;31.70;98.20;;;;;;6122225;23;20445;-64
2021/07/26 10:29:52;;;;;;;9.03;7.80;;;31.80;97.80;;;;;;6122654;23;20382;-64
2021/07/26 10:32:29;;;;;;;9.40;8.43;;;31.80;98.70;;;;;;6122360;23;20406;-68
2021/07/26 10:34:59;;;;;;;10.50;9.00;;;31.90;97.60;;;;;;6123431;23;20433;-64
2021/07/26 10:37:37;;;;;;;8.33;7.57;;;31.90;98.00;;;;;;6122846;23;20414;-68
2021/07/26 10:40:21;;;;;;;9.17;8.30;;;31.90;98.20;;;;;;6122781;23;20736;-68
2021/07/26 10:42:52;;;;;;;8.60;7.70;;;32.00;97.80;;;;;;6125853;23;20413;-65
2021/07/26 10:45:35;;;;;;;9.70;8.50;;;32.00;97.90;;;;;;6126276;23;20373;-64
2021/07/26 10:48:24;;;;;;;8.17;7.47;;;32.10;98.40;;;;;;6123669;23;20738;-69
2021/07/26 10:50:51;;;;;;;10.70;8.70;;;32.20;97.60;;;;;;6123528;23;20929;-68
2021/07/26 10:53:34;;;;;;;9.97;8.97;;;32.20;97.70;;;;;;6122994;23;20428;-68
2021/07/26 10:56:03;;;;;;;10.30;8.47;;;32.20;97.90;;;;;;6123770;23;20382;-68
2021/07/26 10:58:38;;;;;;;9.47;8.43;;;32.30;97.90;;;;;;6123132;23;20504;-68
2021/07/26 11:01:28;;;;;;;10.07;9.03;;;32.40;97.90;;;;;;6123834;23;20695;-70
2021/07/26 11:03:57;;;;;;;9.43;8.53;;;32.50;97.30;;;;;;6122356;23;20713;-68
2021/07/26 11:06:37;;;;;;;9.70;8.80;;;32.50;96.90;;;;;;6123696;23;20929;-68
2021/07/26 11:09:21;;;;;;;11.00;8.93;;;32.60;97.10;;;;;;6116477;23;20393;-69
2021/07/26 11:11:53;;;;;;;12.60;8.77;;;32.60;96.80;;;;;;6121741;23;20395;-64
2021/07/26 11:14:20;;;;;;;10.40;9.40;;;32.70;96.80;;;;;;6122143;23;20453;-69
2021/07/26 11:17:00;;;;;;;9.23;8.33;;;32.80;96.90;;;;;;6124293;23;20784;-65
2021/07/26 11:19:38;;;;;;;8.80;7.90;;;32.80;97.10;;;;;;6121132;23;20793;-69
2021/07/26 11:22:26;;;;;;;8.93;8.13;;;32.90;96.20;;;;;;6119500;23;20410;-68
2021/07/26 11:24:54;;;;;;;8.33;7.53;;;33.00;96.70;;;;;;6122315;23;20767;-68
2021/07/26 11:27:23;;;;;;;9.07;8.17;;;33.10;96.00;;;;;;6121556;23;20799;-68
2021/07/26 11:29:51;;;;;;;9.27;8.43;;;33.10;96.10;;;;;;6120349;23;21003;-69
2021/07/26 11:32:27;;;;;;;10.97;8.77;;;33.10;96.90;;;;;;6120406;23;20707;-64
2021/07/26 11:34:57;;;;;;;8.43;7.73;;;33.20;96.50;;;;;;6118100;23;20433;-66
2021/07/26 11:37:36;;;;;;;9.23;8.27;;;33.30;96.00;;;;;;6118883;23;20401;-65
2021/07/26 11:40:04;;;;;;;8.83;7.93;;;33.30;96.30;;;;;;6121866;23;20686;-63
2021/07/26 11:42:33;;;;;;;9.90;8.77;;;33.30;95.90;;;;;;6117207;23;20787;-68
2021/07/26 11:45:02;;;;;;;9.23;8.27;;;33.40;96.90;;;;;;6123969;23;20367;-68
2021/07/26 11:47:32;;;;;;;9.17;8.27;;;33.50;96.90;;;;;;6120028;23;20454;-63
2021/07/26 11:49:58;;;;;;;9.93;8.40;;;33.50;96.50;;;;;;6120454;23;20412;-63
2021/07/26 11:52:24;;;;;;;10.70;8.53;;;33.60;96.80;;;;;;6122374;23;20958;-63
2021/07/26 11:54:49;;;;;;;8.70;7.33;;;33.70;95.70;;;;;;6120135;23;20574;-63
2021/07/26 11:57:15;;;;;;;9.50;8.10;;;33.80;95.90;;;;;;6119052;23;20231;-63
2021/07/26 11:59:53;;;;;;;11.20;8.20;;;33.80;95.50;;;;;;6119736;23;20235;-63
2021/07/26 12:02:27;;;;;;;9.13;7.83;;;33.90;95.20;;;;;;6123013;23;20179;-67
2021/07/26 12:04:52;;;;;;;10.10;8.60;;;34.00;94.00;;;;;;6123440;23;20410;-68
2021/07/26 12:07:41;;;;;;;10.73;7.93;;;34.00;93.00;;;;;;6118062;23;20445;-63
2021/07/26 12:10:07;;;;;;;9.07;8.23;;;34.10;92.90;;;;;;6122457;23;20140;-63
2021/07/26 12:12:38;;;;;;;11.20;8.17;;;34.10;93.00;;;;;;6119731;23;20422;-67
2021/07/26 12:15:27;;;;;;;10.43;9.33;;;34.20;93.50;;;;;;6122578;23;20374;-63
2021/07/26 12:18:10;;;;;;;9.37;8.47;;;34.20;93.80;;;;;;6111861;23;20900;-64
2021/07/26 12:21:02;;;;;;;9.17;8.27;;;34.30;93.10;;;;;;6122475;23;20394;-70
2021/07/26 12:23:30;;;;;;;9.20;8.23;;;34.30;91.70;;;;;;6139154;23;20489;-63
2021/07/26 12:26:12;;;;;;;8.03;7.10;;;34.30;92.30;;;;;;6122738;23;20974;-63
2021/07/26 12:28:50;;;;;;;7.83;7.03;;;34.40;90.90;;;;;;6120570;23;20417;-67
2021/07/26 12:31:34;;;;;;;8.37;7.47;;;34.40;88.30;;;;;;6124906;23;20417;-65
2021/07/26 12:34:20;;;;;;;9.20;8.30;;;34.50;87.20;;;;;;6123388;23;20707;-63
2021/07/26 12:36:46;;;;;;;9.17;7.13;;;34.50;86.70;;;;;;6123059;23;20916;-63
2021/07/26 12:39:12;;;;;;;9.20;7.60;;;34.50;87.50;;;;;;6122462;23;20725;-64
2021/07/26 12:41:40;;;;;;;8.30;7.10;;;34.40;85.90;;;;;;6122758;23;20394;-67
2021/07/26 12:44:34;;;;;;;8.30;7.37;;;34.40;85.60;;;;;;6119581;23;20353;-68
2021/07/26 12:46:59;;;;;;;8.43;7.37;;;34.30;85.90;;;;;;6114401;23;20842;-67
2021/07/26 12:49:25;;;;;;;10.27;8.07;;;34.20;86.70;;;;;;6123992;23;20390;-67
2021/07/26 12:51:54;;;;;;;8.70;7.63;;;34.20;87.30;;;;;;6124409;23;20182;-63